Time;durP1;ratioP1;P1;durP2;ratioP2;P2;SDS_P1;SDS_P2;PMS_P1;PMS_P2;Temp;Humidity;BMP_temperature;BMP_pressure;BME280_temperature;BME280_humidity;BME280_pressure;Samples;Min_cycle;Max_cycle;Signal;HPM_P1;HPM_P2
2023/08/24 00:00:39;;;;;;;9.88;3.75;;;25.90;89.10;;;;;;5041784;28;20115;-69
2023/08/24 00:03:04;;;;;;;10.20;3.65;;;25.90;89.90;;;;;;5044001;28;20040;-68
2023/08/24 00:05:34;;;;;;;11.53;4.03;;;25.70;90.10;;;;;;5043514;28;20052;-68
2023/08/24 00:08:00;;;;;;;14.13;3.85;;;25.70;90.30;;;;;;5045545;28;20275;-69
2023/08/24 00:10:26;;;;;;;8.67;3.40;;;25.50;90.80;;;;;;5045204;28;20086;-69
2023/08/24 00:12:51;;;;;;;7.00;4.00;;;25.40;91.00;;;;;;5043428;28;20278;-69
2023/08/24 00:15:17;;;;;;;14.67;3.93;;;25.20;91.40;;;;;;5043465;28;20291;-68
2023/08/24 00:17:42;;;;;;;8.97;3.70;;;25.30;91.30;;;;;;5040631;28;20044;-69
2023/08/24 00:20:11;;;;;;;13.82;3.78;;;25.40;91.40;;;;;;5041501;28;20029;-69
2023/08/24 00:22:40;;;;;;;16.45;4.07;;;25.40;91.10;;;;;;5045526;28;20029;-68
2023/08/24 00:25:09;;;;;;;10.38;3.80;;;25.40;91.20;;;;;;5041838;28;20112;-68
2023/08/24 00:27:36;;;;;;;14.63;3.97;;;25.40;91.30;;;;;;5041233;28;20029;-69
2023/08/24 00:30:06;;;;;;;9.32;3.95;;;25.30;91.40;;;;;;5043177;28;20576;-68
2023/08/24 00:32:35;;;;;;;18.80;4.70;;;25.30;91.50;;;;;;5032567;28;20064;-68
2023/08/24 00:35:08;;;;;;;5.93;3.20;;;25.20;91.70;;;;;;5042139;28;20052;-69
2023/08/24 00:37:34;;;;;;;10.48;4.03;;;25.10;91.90;;;;;;5040897;28;20041;-68
2023/08/24 00:40:04;;;;;;;6.78;3.58;;;25.10;92.00;;;;;;5037785;28;20041;-68
2023/08/24 00:42:31;;;;;;;8.38;4.05;;;25.10;92.10;;;;;;5045006;28;20052;-68
2023/08/24 00:44:58;;;;;;;14.45;4.38;;;25.00;92.20;;;;;;5043969;28;20037;-68
2023/08/24 00:47:23;;;;;;;9.13;3.63;;;25.10;92.20;;;;;;5045400;28;20382;-69
2023/08/24 00:49:49;;;;;;;17.10;4.07;;;25.10;92.30;;;;;;5039614;28;20033;-69
2023/08/24 00:52:15;;;;;;;13.00;3.55;;;25.10;92.10;;;;;;5042599;28;20053;-68
2023/08/24 00:54:41;;;;;;;10.13;3.85;;;25.20;92.10;;;;;;5039681;28;20033;-68
2023/08/24 00:57:07;;;;;;;9.75;3.47;;;25.10;92.10;;;;;;5042204;28;20025;-69
2023/08/24 00:59:34;;;;;;;6.75;3.90;;;24.90;92.40;;;;;;5043407;28;20024;-68
2023/08/24 01:01:59;;;;;;;9.65;3.95;;;25.00;92.20;;;;;;5037352;28;20107;-68
2023/08/24 01:04:25;;;;;;;8.65;3.33;;;25.10;92.10;;;;;;5043844;28;20037;-67
2023/08/24 01:06:52;;;;;;;10.10;4.20;;;24.90;92.40;;;;;;5036515;28;20040;-67
2023/08/24 01:09:18;;;;;;;8.40;3.92;;;24.90;92.70;;;;;;5039793;28;20040;-68
2023/08/24 01:12:02;;;;;;;;;;;24.80;92.90;;;;;;5044147;28;20100;-67
2023/08/24 01:14:40;;;;;;;13.82;4.10;;;24.60;93.10;;;;;;5044165;28;19904;-69
2023/08/24 01:17:11;;;;;;;10.07;4.07;;;24.70;93.20;;;;;;5043106;28;20135;-68
2023/08/24 01:19:38;;;;;;;10.63;4.18;;;24.70;93.10;;;;;;5039526;28;20025;-68
2023/08/24 01:22:17;;;;;;;11.48;4.40;;;24.80;93.00;;;;;;5054593;28;20025;-68
2023/08/24 01:24:53;;;;;;;15.32;4.38;;;24.70;93.10;;;;;;5039055;28;20123;-69
2023/08/24 01:27:20;;;;;;;8.07;3.92;;;24.60;93.40;;;;;;5037543;28;20024;-69
2023/08/24 01:29:47;;;;;;;10.35;3.92;;;24.50;93.40;;;;;;5039208;28;20030;-69
2023/08/24 01:32:12;;;;;;;13.98;4.57;;;24.50;93.80;;;;;;5057248;28;20036;-69
2023/08/24 01:34:39;;;;;;;14.37;4.20;;;24.50;94.00;;;;;;5041229;28;20075;-69
2023/08/24 01:37:06;;;;;;;9.15;4.43;;;24.40;94.50;;;;;;5039638;28;20500;-69
2023/08/24 01:39:45;;;;;;;10.05;3.67;;;24.30;94.80;;;;;;5042776;28;20068;-68
2023/08/24 01:42:18;;;;;;;10.55;4.00;;;24.30;94.90;;;;;;5045648;28;20036;-69
2023/08/24 01:44:50;;;;;;;5.40;3.88;;;24.20;95.20;;;;;;5057621;28;20037;-69
2023/08/24 01:47:18;;;;;;;7.10;4.00;;;24.40;95.00;;;;;;5039178;28;20059;-68
2023/08/24 01:49:44;;;;;;;9.52;3.78;;;24.50;94.90;;;;;;5039850;28;20033;-67
2023/08/24 01:52:10;;;;;;;10.80;3.78;;;24.50;95.20;;;;;;5048137;28;20032;-69
2023/08/24 01:54:36;;;;;;;12.73;4.72;;;24.50;95.10;;;;;;5040578;28;20025;-69
2023/08/24 01:57:05;;;;;;;8.77;4.10;;;24.50;94.80;;;;;;5043760;28;20037;-69
2023/08/24 01:59:30;;;;;;;5.43;3.50;;;24.50;94.80;;;;;;5044645;28;20021;-69
2023/08/24 02:01:56;;;;;;;11.52;3.63;;;24.50;94.90;;;;;;5037659;28;20039;-68
2023/08/24 02:04:22;;;;;;;6.30;3.72;;;24.30;94.90;;;;;;5046760;28;20025;-68
2023/08/24 02:06:47;;;;;;;8.07;3.93;;;24.20;95.20;;;;;;5044006;28;20025;-68
2023/08/24 02:09:13;;;;;;;14.47;3.77;;;24.20;95.30;;;;;;5062930;28;20116;-69
2023/08/24 02:11:38;;;;;;;11.33;4.97;;;24.20;95.30;;;;;;5045711;28;20357;-69
2023/08/24 02:14:04;;;;;;;13.00;4.33;;;24.20;95.40;;;;;;5045506;28;20033;-68
2023/08/24 02:16:30;;;;;;;10.30;4.30;;;24.20;95.50;;;;;;5045874;28;20029;-68
2023/08/24 02:18:55;;;;;;;11.10;4.82;;;24.20;95.70;;;;;;5044084;28;20035;-69
2023/08/24 02:21:21;;;;;;;9.10;4.43;;;24.00;96.10;;;;;;5044182;28;20122;-69
2023/08/24 02:23:47;;;;;;;16.80;5.20;;;23.70;96.90;;;;;;5036645;28;20296;-69
2023/08/24 02:26:12;;;;;;;12.67;4.70;;;23.70;97.30;;;;;;5045802;28;20037;-70
2023/08/24 02:28:38;;;;;;;15.60;4.75;;;23.90;96.70;;;;;;5042154;28;20092;-69
2023/08/24 02:31:04;;;;;;;9.95;5.07;;;24.00;96.60;;;;;;5042338;28;20017;-69
2023/08/24 02:33:31;;;;;;;12.75;5.50;;;23.80;97.00;;;;;;5037291;28;20071;-68
2023/08/24 02:35:57;;;;;;;16.33;5.65;;;23.70;97.30;;;;;;5043789;28;20598;-69
2023/08/24 02:38:23;;;;;;;7.95;4.60;;;23.70;97.50;;;;;;5044256;28;20501;-69
2023/08/24 02:40:49;;;;;;;14.05;5.32;;;23.60;98.00;;;;;;5032442;28;20029;-69
2023/08/24 02:43:14;;;;;;;16.25;4.95;;;23.60;98.00;;;;;;5046248;28;20514;-69
2023/08/24 02:45:40;;;;;;;6.67;4.17;;;23.60;98.10;;;;;;5044609;28;20492;-69
2023/08/24 02:48:06;;;;;;;10.90;4.20;;;23.70;98.20;;;;;;5043306;28;20033;-68
2023/08/24 02:50:31;;;;;;;15.60;5.95;;;23.50;98.50;;;;;;5039124;28;20030;-69
2023/08/24 02:52:58;;;;;;;9.03;4.00;;;23.50;98.70;;;;;;5043213;28;20571;-69
2023/08/24 02:55:24;;;;;;;11.80;4.40;;;23.40;99.20;;;;;;5037607;28;20029;-68
2023/08/24 02:57:49;;;;;;;16.75;4.43;;;23.50;99.20;;;;;;5039035;28;20559;-69
2023/08/24 03:00:16;;;;;;;8.53;4.77;;;23.30;99.40;;;;;;5045426;28;20116;-68
2023/08/24 03:02:42;;;;;;;12.18;4.40;;;23.50;99.20;;;;;;5038341;28;20033;-69
2023/08/24 03:05:08;;;;;;;13.17;4.37;;;23.40;99.40;;;;;;5044333;28;20083;-68
2023/08/24 03:07:33;;;;;;;10.45;4.68;;;23.30;99.90;;;;;;5045657;28;20025;-68
2023/08/24 03:09:59;;;;;;;9.47;4.40;;;23.30;99.90;;;;;;5040729;28;20409;-68
2023/08/24 03:12:25;;;;;;;19.73;4.70;;;23.30;99.90;;;;;;5044838;28;20057;-70
2023/08/24 03:14:54;;;;;;;16.80;5.23;;;23.20;99.90;;;;;;5044283;28;20020;-68
2023/08/24 03:17:20;;;;;;;10.18;4.25;;;23.20;99.90;;;;;;5043465;28;20487;-69
2023/08/24 03:19:46;;;;;;;;;;;23.20;99.90;;;;;;5039652;28;20104;-68
2023/08/24 03:22:12;;;;;;;11.40;4.70;;;22.90;99.90;;;;;;5044901;28;20063;-68
2023/08/24 03:24:37;;;;;;;15.60;5.05;;;22.80;99.90;;;;;;5038049;28;20515;-69
2023/08/24 03:27:04;;;;;;;17.40;5.17;;;22.80;99.90;;;;;;5041161;28;20029;-68
2023/08/24 03:29:30;;;;;;;8.48;4.60;;;23.00;99.90;;;;;;5042258;28;20032;-69
2023/08/24 03:31:55;;;;;;;11.43;5.30;;;23.00;99.90;;;;;;5037573;28;20029;-69
2023/08/24 03:34:21;;;;;;;16.07;5.47;;;23.00;99.90;;;;;;5045550;28;20086;-69
2023/08/24 03:36:47;;;;;;;6.40;4.60;;;23.10;99.90;;;;;;5042086;28;20489;-68
2023/08/24 03:39:15;;;;;;;;;;;22.90;99.90;;;;;;5042921;28;20501;-68
2023/08/24 03:41:41;;;;;;;12.13;4.30;;;23.00;99.90;;;;;;5040600;28;20287;-68
2023/08/24 03:44:06;;;;;;;14.95;4.80;;;22.80;99.90;;;;;;5040959;28;20030;-68
2023/08/24 03:46:32;;;;;;;12.53;5.37;;;22.90;99.90;;;;;;5041760;28;20025;-68
2023/08/24 03:48:57;;;;;;;11.80;4.30;;;22.90;99.90;;;;;;5039416;28;20479;-69
2023/08/24 03:51:23;;;;;;;10.73;4.77;;;23.10;99.90;;;;;;5042479;28;20126;-69
2023/08/24 03:53:48;;;;;;;9.03;4.83;;;23.30;99.90;;;;;;5038953;28;20109;-68
2023/08/24 03:56:14;;;;;;;13.30;4.73;;;23.30;99.90;;;;;;5045223;28;20845;-69
2023/08/24 03:58:40;;;;;;;13.43;4.90;;;23.30;99.90;;;;;;5040205;28;20127;-68
2023/08/24 04:01:10;;;;;;;10.23;5.10;;;23.10;99.90;;;;;;5044781;28;20040;-68
2023/08/24 04:03:36;;;;;;;13.50;4.13;;;23.10;99.90;;;;;;5043657;28;20393;-68
2023/08/24 04:06:01;;;;;;;9.10;4.47;;;23.10;99.90;;;;;;5040659;28;20040;-68
2023/08/24 04:08:27;;;;;;;7.87;4.70;;;23.10;99.90;;;;;;5038489;28;20074;-69
2023/08/24 04:10:52;;;;;;;9.73;4.33;;;23.20;99.90;;;;;;5041959;28;20284;-69
2023/08/24 04:13:18;;;;;;;12.37;4.53;;;23.10;99.90;;;;;;5047722;28;20033;-69
2023/08/24 04:15:44;;;;;;;12.20;4.97;;;23.10;99.90;;;;;;5038500;28;20033;-68
2023/08/24 04:18:10;;;;;;;10.67;4.57;;;23.00;99.90;;;;;;5045664;28;20635;-68
2023/08/24 04:20:36;;;;;;;6.82;4.97;;;23.00;99.90;;;;;;5045327;28;20035;-69
2023/08/24 04:23:02;;;;;;;10.60;5.47;;;22.90;99.90;;;;;;5041599;28;20473;-68
2023/08/24 04:25:29;;;;;;;11.73;5.75;;;22.80;99.90;;;;;;5042024;28;20052;-68
2023/08/24 04:27:54;;;;;;;8.90;4.22;;;22.80;99.90;;;;;;5037707;28;20071;-69
2023/08/24 04:30:21;;;;;;;14.30;4.83;;;22.90;99.90;;;;;;5041890;28;20036;-68
2023/08/24 04:32:47;;;;;;;11.63;4.72;;;22.90;99.90;;;;;;5031740;28;20029;-69
2023/08/24 04:35:13;;;;;;;14.50;5.15;;;22.70;99.90;;;;;;5040727;28;20033;-69
2023/08/24 04:37:38;;;;;;;13.55;5.15;;;22.80;99.90;;;;;;5039587;28;20029;-69
2023/08/24 04:40:07;;;;;;;13.13;4.80;;;22.90;99.90;;;;;;5042885;28;20033;-69
2023/08/24 04:42:33;;;;;;;11.40;4.72;;;22.90;99.90;;;;;;5043171;28;20058;-69
2023/08/24 04:44:58;;;;;;;11.13;4.53;;;22.80;99.90;;;;;;5041591;28;20037;-68
2023/08/24 04:47:24;;;;;;;10.83;4.73;;;22.60;99.90;;;;;;5043612;28;20043;-68
2023/08/24 04:49:49;;;;;;;10.90;5.37;;;22.70;99.90;;;;;;5042630;28;20037;-69
2023/08/24 04:52:15;;;;;;;18.47;5.10;;;22.70;99.90;;;;;;5044923;28;20033;-69
2023/08/24 04:54:40;;;;;;;12.70;4.83;;;22.60;99.90;;;;;;5039454;28;20025;-70
2023/08/24 04:57:06;;;;;;;9.27;4.47;;;22.70;99.90;;;;;;5039464;28;20025;-69
2023/08/24 04:59:32;;;;;;;11.48;4.88;;;22.60;99.90;;;;;;5045457;28;20275;-69
2023/08/24 05:01:58;;;;;;;15.90;4.83;;;22.50;99.90;;;;;;5040277;28;20103;-67
2023/08/24 05:04:24;;;;;;;10.65;4.38;;;22.70;99.90;;;;;;5041931;28;20044;-69
2023/08/24 05:06:50;;;;;;;12.90;5.65;;;22.80;99.90;;;;;;5036886;28;20052;-69
2023/08/24 05:09:15;;;;;;;15.33;4.67;;;22.80;99.90;;;;;;5039522;28;20096;-70
2023/08/24 05:11:41;;;;;;;14.57;4.70;;;22.80;99.90;;;;;;5042702;28;20037;-71
2023/08/24 05:14:06;;;;;;;9.10;4.40;;;22.80;99.90;;;;;;5044717;28;20036;-71
2023/08/24 05:16:32;;;;;;;10.13;4.67;;;22.90;99.90;;;;;;5045516;28;20204;-71
2023/08/24 05:18:58;;;;;;;5.83;4.17;;;22.90;99.90;;;;;;5043588;28;20401;-69
2023/08/24 05:21:23;;;;;;;10.85;4.40;;;22.90;99.90;;;;;;5046437;28;20496;-71
2023/08/24 05:23:49;;;;;;;9.47;4.70;;;22.90;99.90;;;;;;5040877;28;20115;-70
2023/08/24 05:26:22;;;;;;;13.50;4.77;;;23.00;99.90;;;;;;5042300;28;20167;-71
2023/08/24 05:28:47;;;;;;;9.63;5.68;;;23.00;99.90;;;;;;5048409;28;20029;-70
2023/08/24 05:31:13;;;;;;;7.50;4.35;;;23.00;99.90;;;;;;5044872;28;20059;-69
2023/08/24 05:33:39;;;;;;;19.60;5.13;;;23.00;99.90;;;;;;5048129;28;20504;-70
2023/08/24 05:36:04;;;;;;;10.73;5.07;;;23.10;99.90;;;;;;5044147;28;20022;-71
2023/08/24 05:38:30;;;;;;;11.07;4.65;;;23.20;99.90;;;;;;5046814;28;20024;-70
2023/08/24 05:40:56;;;;;;;18.55;5.38;;;23.30;99.90;;;;;;5043191;28;20111;-71
2023/08/24 05:43:21;;;;;;;13.27;4.03;;;23.40;99.90;;;;;;5045791;28;20036;-71
2023/08/24 05:45:48;;;;;;;16.60;5.47;;;23.40;99.90;;;;;;5044790;28;20040;-71
2023/08/24 05:48:14;;;;;;;22.50;4.95;;;23.50;99.90;;;;;;5042608;28;20017;-69
2023/08/24 05:50:46;;;;;;;10.02;5.20;;;23.60;99.90;;;;;;5045295;28;20039;-73
2023/08/24 05:53:12;;;;;;;13.35;5.20;;;23.60;99.90;;;;;;5044649;28;20041;-72
2023/08/24 05:55:38;;;;;;;12.07;5.70;;;23.70;99.90;;;;;;5043787;28;20039;-71
2023/08/24 05:58:04;;;;;;;17.95;5.47;;;23.70;99.90;;;;;;5042967;28;20663;-71
2023/08/24 06:00:30;;;;;;;9.77;5.57;;;23.70;99.90;;;;;;5048136;28;20116;-71
2023/08/24 06:02:56;;;;;;;11.02;4.57;;;23.70;99.90;;;;;;5048267;28;20115;-72
2023/08/24 06:05:22;;;;;;;7.72;5.32;;;23.70;99.70;;;;;;5060169;28;20504;-72
2023/08/24 06:07:48;;;;;;;;;;;24.10;98.90;;;;;;5046387;28;20037;-72
2023/08/24 06:10:14;;;;;;;10.10;5.63;;;24.00;98.50;;;;;;5043182;28;19955;-72
2023/08/24 06:12:39;;;;;;;11.90;4.97;;;24.10;98.50;;;;;;5045382;28;20052;-71
2023/08/24 06:15:09;;;;;;;10.77;5.40;;;24.00;99.60;;;;;;5046552;28;20034;-71
2023/08/24 06:17:35;;;;;;;14.52;5.32;;;24.30;98.80;;;;;;5045520;28;21184;-71
2023/08/24 06:20:04;;;;;;;11.70;5.03;;;24.50;97.90;;;;;;5041707;28;20025;-70
2023/08/24 06:22:30;;;;;;;14.45;5.55;;;24.50;97.70;;;;;;5037359;28;20033;-70
2023/08/24 06:24:59;;;;;;;10.85;5.22;;;24.50;97.50;;;;;;5041051;28;20033;-70
2023/08/24 06:27:25;;;;;;;19.67;5.20;;;24.70;97.40;;;;;;5034277;28;20056;-70
2023/08/24 06:29:51;;;;;;;;;;;24.70;97.20;;;;;;5039523;28;20033;-70
2023/08/24 06:32:16;;;;;;;14.20;4.88;;;24.60;96.00;;;;;;5037714;28;20276;-70
2023/08/24 06:34:42;;;;;;;17.00;6.50;;;24.60;97.10;;;;;;5036337;28;20467;-71
2023/08/24 06:37:08;;;;;;;11.47;5.03;;;24.70;96.90;;;;;;5038198;28;20021;-71
2023/08/24 06:39:33;;;;;;;16.33;5.63;;;24.70;97.90;;;;;;5045053;28;20037;-66
2023/08/24 06:41:59;;;;;;;15.47;4.83;;;24.70;96.20;;;;;;5035616;28;20287;-69
2023/08/24 06:44:25;;;;;;;10.82;5.32;;;24.70;97.20;;;;;;5042267;28;20552;-67
2023/08/24 06:46:50;;;;;;;16.23;5.27;;;24.80;96.20;;;;;;5040540;28;20037;-68
2023/08/24 06:49:16;;;;;;;8.43;4.15;;;25.00;95.70;;;;;;5039787;28;20075;-68
2023/08/24 06:51:41;;;;;;;9.73;4.73;;;25.10;96.40;;;;;;5038004;28;20024;-68
2023/08/24 06:54:07;;;;;;;22.43;5.50;;;25.20;95.10;;;;;;5037729;28;20284;-70
2023/08/24 06:56:33;;;;;;;12.30;5.30;;;25.20;95.50;;;;;;5042100;28;20075;-69
2023/08/24 06:58:58;;;;;;;10.17;4.63;;;25.20;94.80;;;;;;5040964;28;20293;-70
2023/08/24 07:01:25;;;;;;;13.50;4.80;;;25.20;94.90;;;;;;5037646;28;20493;-71
2023/08/24 07:03:51;;;;;;;11.55;5.15;;;25.40;95.20;;;;;;5036640;28;20030;-70
2023/08/24 07:06:17;;;;;;;18.67;4.70;;;25.50;93.60;;;;;;5037694;28;20086;-73
2023/08/24 07:08:42;;;;;;;15.85;5.47;;;25.70;93.40;;;;;;5037404;28;20029;-70
2023/08/24 07:11:08;;;;;;;12.80;4.93;;;25.90;93.80;;;;;;5043168;28;20393;-67
2023/08/24 07:13:34;;;;;;;18.67;5.40;;;26.00;93.10;;;;;;5037053;28;20037;-68
2023/08/24 07:16:00;;;;;;;;;;;26.20;92.30;;;;;;5039674;28;20043;-68
2023/08/24 07:18:26;;;;;;;16.23;5.68;;;26.70;91.50;;;;;;5041224;28;20376;-68
2023/08/24 07:20:52;;;;;;;16.80;5.50;;;26.80;91.80;;;;;;5040263;28;20036;-68
2023/08/24 07:23:18;;;;;;;22.45;5.22;;;27.00;90.70;;;;;;5056224;28;20029;-69
2023/08/24 07:25:44;;;;;;;13.98;5.32;;;27.10;89.20;;;;;;5035930;28;20418;-68
2023/08/24 07:28:09;;;;;;;15.75;4.63;;;27.90;87.90;;;;;;5038398;28;20033;-68
2023/08/24 07:30:36;;;;;;;14.40;4.93;;;29.20;84.90;;;;;;5040501;28;20115;-69
2023/08/24 07:33:03;;;;;;;;;;;28.70;86.10;;;;;;5037110;28;20052;-69
2023/08/24 07:35:29;;;;;;;16.67;4.63;;;28.00;88.90;;;;;;5040731;28;19913;-68
2023/08/24 07:37:55;;;;;;;25.50;5.90;;;28.10;89.80;;;;;;5035193;28;20017;-68
2023/08/24 07:40:21;;;;;;;11.23;5.05;;;27.90;90.50;;;;;;5038476;28;20036;-68
2023/08/24 07:42:50;;;;;;;15.50;5.15;;;27.50;90.50;;;;;;5038761;28;20497;-68
2023/08/24 07:45:16;;;;;;;26.60;6.38;;;27.50;90.90;;;;;;5036188;28;20576;-68
2023/08/24 07:47:43;;;;;;;14.60;5.38;;;27.80;86.50;;;;;;5040451;28;20108;-67
2023/08/24 07:50:10;;;;;;;11.10;5.05;;;28.00;87.00;;;;;;5043275;28;20033;-69
2023/08/24 07:52:40;;;;;;;14.77;5.10;;;28.10;88.20;;;;;;5033938;28;20037;-67
2023/08/24 07:55:09;;;;;;;19.95;5.65;;;28.00;87.20;;;;;;5037854;28;20413;-67
2023/08/24 07:57:36;;;;;;;17.90;5.45;;;27.90;88.30;;;;;;5036140;28;20032;-67
2023/08/24 08:00:04;;;;;;;17.90;5.32;;;27.70;88.20;;;;;;5039325;28;20042;-68
2023/08/24 08:02:32;;;;;;;15.43;5.03;;;27.60;86.60;;;;;;5036861;28;20056;-64
2023/08/24 08:04:58;;;;;;;17.45;5.05;;;27.50;87.90;;;;;;5037405;28;20045;-66
2023/08/24 08:07:24;;;;;;;12.05;5.20;;;27.50;87.70;;;;;;5040756;28;20029;-65
2023/08/24 08:09:50;;;;;;;;;;;27.70;90.00;;;;;;5035464;28;20071;-67
2023/08/24 08:12:16;;;;;;;14.00;5.15;;;28.80;86.70;;;;;;5036363;28;19921;-66
2023/08/24 08:14:41;;;;;;;11.40;4.85;;;31.80;77.10;;;;;;5035757;28;20025;-67
2023/08/24 08:17:07;;;;;;;12.50;5.45;;;32.70;72.60;;;;;;5038968;28;20036;-70
2023/08/24 08:19:35;;;;;;;18.95;4.68;;;32.30;74.70;;;;;;5039873;28;20071;-71
2023/08/24 08:22:01;;;;;;;18.80;4.57;;;34.10;69.90;;;;;;5036998;28;20053;-71
2023/08/24 08:24:27;;;;;;;8.48;4.45;;;34.70;68.50;;;;;;5037137;28;20087;-71
2023/08/24 08:26:52;;;;;;;;;;;35.40;65.10;;;;;;5037254;28;20041;-71
2023/08/24 08:29:18;;;;;;;22.60;4.10;;;35.90;65.80;;;;;;5038327;28;19912;-70
2023/08/24 08:31:43;;;;;;;;;;;36.70;63.20;;;;;;5036059;28;20540;-71
2023/08/24 08:34:09;;;;;;;10.05;4.43;;;35.10;64.50;;;;;;5042841;28;19912;-71
2023/08/24 08:36:34;;;;;;;;;;;34.10;64.20;;;;;;5034436;28;20052;-71
2023/08/24 08:39:00;;;;;;;11.35;4.40;;;35.00;65.70;;;;;;5040481;28;19917;-72
2023/08/24 08:41:30;;;;;;;;;;;34.20;68.90;;;;;;5037645;28;20472;-71
2023/08/24 08:43:56;;;;;;;14.40;3.88;;;33.10;69.10;;;;;;5038424;28;20418;-72
2023/08/24 08:46:22;;;;;;;10.00;4.22;;;32.40;71.00;;;;;;5036811;28;20496;-71
2023/08/24 08:48:50;;;;;;;12.20;3.95;;;32.00;73.70;;;;;;5040292;28;20025;-71
2023/08/24 08:51:17;;;;;;;14.63;3.85;;;31.80;70.30;;;;;;5038963;28;20412;-72
2023/08/24 08:53:43;;;;;;;10.35;3.95;;;32.30;62.80;;;;;;5040879;28;20120;-72
2023/08/24 08:56:09;;;;;;;14.27;4.40;;;32.80;64.00;;;;;;5037481;28;20039;-72
2023/08/24 08:58:36;;;;;;;;;;;33.60;61.90;;;;;;5037757;28;20037;-72
2023/08/24 09:01:04;;;;;;;12.07;4.35;;;34.10;63.00;;;;;;5037092;28;20372;-71
2023/08/24 09:03:31;;;;;;;10.00;3.97;;;34.50;64.60;;;;;;5041577;28;20405;-71
2023/08/24 09:05:57;;;;;;;11.55;3.60;;;34.00;60.50;;;;;;5036147;28;20049;-71
2023/08/24 09:08:23;;;;;;;;;;;34.00;65.00;;;;;;5043409;28;20033;-73
2023/08/24 09:10:49;;;;;;;8.67;4.20;;;35.60;58.80;;;;;;5043801;28;19908;-72
2023/08/24 09:13:15;;;;;;;19.77;3.90;;;36.20;58.50;;;;;;5043369;28;20029;-72
2023/08/24 09:15:40;;;;;;;13.73;3.50;;;38.00;55.00;;;;;;5052147;28;20029;-71
2023/08/24 09:18:06;;;;;;;15.25;4.68;;;39.30;55.70;;;;;;5042194;28;20029;-73
2023/08/24 09:20:33;;;;;;;15.95;4.13;;;39.60;53.40;;;;;;5041471;28;20403;-74
2023/08/24 09:22:59;;;;;;;14.88;4.72;;;38.90;53.20;;;;;;5039529;28;20497;-73
2023/08/24 09:25:25;;;;;;;21.90;4.43;;;37.40;53.70;;;;;;5032469;28;20051;-74
2023/08/24 09:28:03;;;;;;;10.35;3.72;;;36.90;53.00;;;;;;5034838;28;20574;-73
2023/08/24 09:30:34;;;;;;;9.20;3.92;;;36.90;54.90;;;;;;5041611;28;20036;-75
2023/08/24 09:33:04;;;;;;;16.80;5.25;;;38.30;54.10;;;;;;5041348;28;20484;-71
2023/08/24 09:35:35;;;;;;;7.80;4.35;;;38.70;51.40;;;;;;5043966;28;20039;-75
2023/08/24 09:38:01;;;;;;;14.23;4.22;;;39.80;53.50;;;;;;5041190;28;20036;-75
2023/08/24 09:40:27;;;;;;;7.28;3.72;;;41.00;69.10;;;;;;5042281;28;20045;-74
2023/08/24 09:42:52;;;;;;;15.48;4.60;;;40.60;65.50;;;;;;5039136;28;20448;-72
2023/08/24 09:45:18;;;;;;;12.88;3.53;;;41.10;66.50;;;;;;5037224;28;20668;-73
2023/08/24 09:47:51;;;;;;;14.35;3.90;;;41.60;64.30;;;;;;5039359;28;20057;-74
2023/08/24 09:50:17;;;;;;;12.70;3.60;;;41.80;62.90;;;;;;5044736;28;20021;-74
2023/08/24 09:52:43;;;;;;;9.90;4.07;;;42.30;59.30;;;;;;5040021;28;20144;-73
2023/08/24 09:55:09;;;;;;;15.13;3.47;;;42.70;50.50;;;;;;5042155;28;20856;-73
2023/08/24 09:57:37;;;;;;;12.18;3.60;;;42.30;47.60;;;;;;5058444;28;20037;-72
2023/08/24 10:00:10;;;;;;;24.67;4.15;;;42.40;47.50;;;;;;5041227;28;20053;-74
2023/08/24 10:02:45;;;;;;;8.35;3.17;;;42.20;46.80;;;;;;5037875;28;20435;-73
2023/08/24 10:05:12;;;;;;;23.33;3.75;;;41.80;48.30;;;;;;5038920;28;20052;-72
2023/08/24 10:07:38;;;;;;;17.02;3.45;;;41.90;47.30;;;;;;5036805;28;20038;-72
2023/08/24 10:10:10;;;;;;;9.48;3.30;;;42.20;47.10;;;;;;5039617;28;20033;-73
2023/08/24 10:12:41;;;;;;;18.38;3.63;;;42.40;48.40;;;;;;5035953;28;20107;-72
2023/08/24 10:15:08;;;;;;;13.35;3.88;;;42.50;47.50;;;;;;5043135;28;20135;-72
2023/08/24 10:17:36;;;;;;;12.18;3.88;;;42.10;47.20;;;;;;5035765;28;20033;-73
2023/08/24 10:20:06;;;;;;;12.98;3.67;;;41.80;47.70;;;;;;5042066;28;20035;-72
2023/08/24 10:22:34;;;;;;;12.43;3.40;;;42.30;49.20;;;;;;5037913;28;20507;-71
2023/08/24 10:25:00;;;;;;;14.85;4.05;;;42.40;47.60;;;;;;5041114;28;20037;-72
2023/08/24 10:27:28;;;;;;;14.38;3.60;;;41.90;47.80;;;;;;5042430;28;20120;-73
2023/08/24 10:29:53;;;;;;;14.15;3.45;;;41.70;47.20;;;;;;5039371;28;20381;-73
2023/08/24 10:32:21;;;;;;;9.35;3.67;;;41.40;47.20;;;;;;5040710;28;20029;-74
2023/08/24 10:34:47;;;;;;;13.70;3.85;;;41.40;47.80;;;;;;5039813;28;20079;-74
2023/08/24 10:37:13;;;;;;;11.70;3.33;;;41.30;47.90;;;;;;5037232;28;20041;-73
2023/08/24 10:39:48;;;;;;;25.80;4.03;;;41.40;49.90;;;;;;5042070;28;20458;-73
2023/08/24 10:42:14;;;;;;;18.23;3.77;;;41.00;48.20;;;;;;5040284;28;20036;-73
2023/08/24 10:44:44;;;;;;;18.00;3.22;;;40.00;48.20;;;;;;5036667;28;20099;-72
2023/08/24 10:47:16;;;;;;;20.08;3.95;;;39.30;48.50;;;;;;5036519;28;20126;-73
2023/08/24 10:49:42;;;;;;;16.40;3.33;;;38.50;48.20;;;;;;5035975;28;20029;-73
2023/08/24 10:52:35;;;;;;;21.20;3.65;;;37.90;48.90;;;;;;5035912;28;20124;-73
2023/08/24 10:55:21;;;;;;;14.32;3.47;;;37.50;47.60;;;;;;5040631;28;20370;-72
2023/08/24 10:57:59;;;;;;;15.57;3.70;;;37.20;48.70;;;;;;5042373;28;20524;-73
2023/08/24 11:00:29;;;;;;;13.68;3.28;;;37.20;51.70;;;;;;5041824;28;20024;-73
2023/08/24 11:02:56;;;;;;;16.27;4.03;;;37.30;48.20;;;;;;5042524;28;20216;-73
2023/08/24 11:05:31;;;;;;;13.27;3.22;;;37.30;49.20;;;;;;5034897;28;20056;-73
2023/08/24 11:08:00;;;;;;;21.25;4.78;;;37.10;48.00;;;;;;5039711;28;20107;-72
2023/08/24 11:10:43;;;;;;;20.85;3.78;;;36.90;49.60;;;;;;5035693;28;20048;-72
2023/08/24 11:13:10;;;;;;;8.88;3.30;;;36.80;48.90;;;;;;5055408;28;20029;-72
2023/08/24 11:15:40;;;;;;;9.30;3.58;;;36.80;52.00;;;;;;5037454;28;20108;-72
2023/08/24 11:18:15;;;;;;;10.95;3.40;;;37.00;54.80;;;;;;5032994;28;20040;-72
2023/08/24 11:20:54;;;;;;;22.67;4.60;;;37.00;48.20;;;;;;5040412;28;20338;-72
2023/08/24 11:23:21;;;;;;;10.23;4.28;;;36.80;49.10;;;;;;5040163;28;20079;-72
2023/08/24 11:25:49;;;;;;;19.38;4.47;;;36.90;50.40;;;;;;5039899;28;20068;-73
2023/08/24 11:28:19;;;;;;;9.38;3.10;;;36.90;49.90;;;;;;5037415;28;20017;-73
2023/08/24 11:30:46;;;;;;;12.13;3.45;;;36.80;50.80;;;;;;5038856;28;20036;-74
2023/08/24 11:33:15;;;;;;;12.15;4.20;;;36.80;48.20;;;;;;5035438;28;20056;-74
2023/08/24 11:35:45;;;;;;;10.13;3.38;;;37.00;48.00;;;;;;5039364;28;20025;-72
2023/08/24 11:38:11;;;;;;;11.20;3.40;;;37.20;49.90;;;;;;5037881;28;20029;-76
2023/08/24 11:40:37;;;;;;;13.40;3.75;;;37.20;48.30;;;;;;5034039;28;20495;-73
2023/08/24 11:43:05;;;;;;;8.20;3.63;;;37.20;48.40;;;;;;5035925;28;20823;-74
2023/08/24 11:45:32;;;;;;;8.23;3.20;;;37.30;49.50;;;;;;5039657;28;20040;-74
2023/08/24 11:48:04;;;;;;;16.85;3.72;;;37.20;49.20;;;;;;5036126;28;20109;-75
2023/08/24 11:50:30;;;;;;;13.52;3.33;;;37.20;48.70;;;;;;5041184;28;20523;-72
2023/08/24 11:52:55;;;;;;;10.68;3.80;;;37.30;47.30;;;;;;5037731;28;20037;-78
2023/08/24 11:55:24;;;;;;;7.90;3.20;;;37.20;48.20;;;;;;5032721;28;20044;-71
2023/08/24 11:57:50;;;;;;;10.07;3.70;;;37.10;48.60;;;;;;5057585;28;20043;-73
2023/08/24 12:00:19;;;;;;;18.35;3.33;;;37.20;46.90;;;;;;5041562;28;20035;-74
2023/08/24 12:02:46;;;;;;;11.32;3.67;;;37.30;47.10;;;;;;5037667;28;20032;-74
2023/08/24 12:05:25;;;;;;;9.77;3.13;;;37.30;45.90;;;;;;5036656;28;20036;-75
2023/08/24 12:07:54;;;;;;;6.13;3.50;;;37.30;45.70;;;;;;5039087;28;20108;-74
2023/08/24 12:10:21;;;;;;;15.10;4.07;;;37.30;46.00;;;;;;5048821;28;20025;-75
2023/08/24 12:12:47;;;;;;;7.03;3.53;;;37.20;47.20;;;;;;5038693;28;20017;-74
2023/08/24 12:15:20;;;;;;;12.27;3.72;;;37.20;46.00;;;;;;5035412;28;20024;-74
2023/08/24 12:17:47;;;;;;;4.78;3.33;;;37.20;47.50;;;;;;5047973;28;20048;-74
2023/08/24 12:20:18;;;;;;;12.38;3.70;;;37.10;47.10;;;;;;5044474;28;20032;-75
2023/08/24 12:22:44;;;;;;;6.95;3.50;;;37.20;45.10;;;;;;5039286;28;20032;-73
2023/08/24 12:25:10;;;;;;;17.30;3.75;;;37.00;45.20;;;;;;5036253;28;20041;-73
2023/08/24 12:27:36;;;;;;;11.45;4.22;;;37.20;46.60;;;;;;5035839;28;20036;-73
2023/08/24 12:30:02;;;;;;;10.25;3.85;;;37.20;48.40;;;;;;5038873;28;20030;-74
2023/08/24 12:32:45;;;;;;;12.45;3.67;;;37.30;45.30;;;;;;5033163;28;20018;-74
2023/08/24 12:35:11;;;;;;;12.77;3.75;;;37.20;50.80;;;;;;5054672;28;20779;-72
2023/08/24 12:37:37;;;;;;;14.57;3.10;;;37.30;46.00;;;;;;5031235;28;20032;-73
2023/08/24 12:40:06;;;;;;;9.30;3.30;;;37.50;45.20;;;;;;5035731;28;20028;-73
2023/08/24 12:42:32;;;;;;;12.75;3.78;;;37.50;45.10;;;;;;5038578;28;20061;-74